Legend Of The Seas — C6SL5 — position and weather

sailwx.info

Track history (hours):
 
Tides and Currents Weather Stations Pressure Air Temp Water Temp Dewpoint Dewpoint Depression Visibility Wind Speed Wind Dir Waves Ship Positions

Legend Of The Seas

Operator: Royal Caribbean Cruises Ltd

Last reported at 2016-Jan-29 08:33 UTC. Time now 2016-Feb-07 08:15 UTC.
Position S 36°24' E 175°18'.
Warning: this ship's position is 8 days out of date.

Type: Passenger vessel. MMSI: 311378000.

Date/timePositionNaut miles runAvg speedWind from/ knotsBaromVisibWave heightAir tempDewpointWater temp
2016-Jan-29 08:33S 36°24' E 175°18'1212.4
2016-Jan-29 07:33S 36°31' E 175°06'1212.5
2016-Jan-29 06:33S 36°40' E 174°55'1111.0
2016-Jan-29 05:33S 36°50' E 174°49'2 2.3
2016-Jan-29 04:32S 36°51' E 174°46'0 0.0
2016-Jan-29 03:32S 36°51' E 174°46'0 0.0
2016-Jan-29 02:32S 36°51' E 174°46'0 0.0
2016-Jan-29 01:32S 36°51' E 174°46'0 0.0
2016-Jan-29 00:32S 36°51' E 174°46'0 0.0
2016-Jan-28 23:32S 36°51' E 174°46'0 0.0
2016-Jan-28 22:32S 36°51' E 174°46'0 0.0
2016-Jan-28 21:32S 36°51' E 174°46'0 0.0
2016-Jan-28 20:27S 36°51' E 174°46'0 0.0
2016-Jan-28 19:33S 36°51' E 174°46'0 0.0
2016-Jan-28 18:33S 36°51' E 174°46'0 0.0
2016-Jan-28 17:33S 36°51' E 174°46'7 6.8
2016-Jan-28 16:34S 36°45' E 174°50'10 9.9
2016-Jan-28 15:34S 36°36' E 174°57'1010.3
2016-Jan-28 14:34S 36°27' E 175°02'1110.5
2016-Jan-28 13:33S 36°17' E 175°08'1111.0
2016-Jan-28 12:33S 36°07' E 175°12'  
2016-Jan-25 12:28S 26°48' E 153°42'1617.7
2016-Jan-25 11:33S 26°43' E 153°25'1212.3
2016-Jan-25 10:33S 26°45' E 153°11'1414.1
2016-Jan-25 09:33S 26°59' E 153°14'1615.7
2016-Jan-25 08:33S 27°14' E 153°20'1413.7
2016-Jan-25 07:33S 27°24' E 153°09'5 5.4
2016-Jan-25 06:34S 27°26' E 153°04'0 0.0
2016-Jan-25 05:33S 27°26' E 153°04'0 0.0
2016-Jan-25 04:30S 27°26' E 153°04'0 0.0
2016-Jan-25 03:24S 27°26' E 153°04'0 0.0
2016-Jan-25 02:30S 27°26' E 153°04'0 0.0
2016-Jan-25 01:30S 27°26' E 153°04'0 0.0
2016-Jan-25 00:27S 27°26' E 153°04'0 0.0
2016-Jan-24 23:33S 27°26' E 153°04'0 0.0
2016-Jan-24 22:12S 27°26' E 153°04'0 0.0
2016-Jan-24 21:33S 27°26' E 153°04'0 0.0
2016-Jan-24 20:33S 27°26' E 153°04'0 0.3
2016-Jan-24 19:33S 27°27' E 153°04'5 5.4
2016-Jan-24 18:33S 27°23' E 153°09'1211.6
2016-Jan-24 17:33S 27°15' E 153°18'1313.0
2016-Jan-24 16:34S 27°02' E 153°15'1414.1
2016-Jan-24 15:33S 26°49' E 153°10'1111.1
2016-Jan-24 14:34S 26°42' E 153°19'1515.1
2016-Jan-24 13:32S 26°34' E 153°34'1615.7
2016-Jan-24 12:33S 26°25' E 153°48'1919.1
2016-Jan-24 11:33S 26°14' E 154°05'2220.4
2016-Jan-24 10:30S 26°01' E 154°25'  
Track history (hours):
 
Tides and Currents Weather Stations Pressure Air Temp Water Temp Dewpoint Dewpoint Depression Visibility Wind Speed Wind Dir Waves Ship Positions

Legend Of The Seas

Operator: Royal Caribbean Cruises Ltd

Last reported at 2016-Jan-29 08:33 UTC. Time now 2016-Feb-07 08:15 UTC.
Position S 36°24' E 175°18'.
Warning: this ship's position is 8 days out of date.

Type: Passenger vessel. MMSI: 311378000.

Date/timePositionNaut miles runAvg speedWind from/ knotsBaromVisibWave heightAir tempDewpointWater temp
2016-Jan-29 08:33S 36°24' E 175°18'1212.4
2016-Jan-29 07:33S 36°31' E 175°06'1212.5
2016-Jan-29 06:33S 36°40' E 174°55'1111.0
2016-Jan-29 05:33S 36°50' E 174°49'2 2.3
2016-Jan-29 04:32S 36°51' E 174°46'0 0.0
2016-Jan-29 03:32S 36°51' E 174°46'0 0.0
2016-Jan-29 02:32S 36°51' E 174°46'0 0.0
2016-Jan-29 01:32S 36°51' E 174°46'0 0.0
2016-Jan-29 00:32S 36°51' E 174°46'0 0.0
2016-Jan-28 23:32S 36°51' E 174°46'0 0.0
2016-Jan-28 22:32S 36°51' E 174°46'0 0.0
2016-Jan-28 21:32S 36°51' E 174°46'0 0.0
2016-Jan-28 20:27S 36°51' E 174°46'0 0.0
2016-Jan-28 19:33S 36°51' E 174°46'0 0.0
2016-Jan-28 18:33S 36°51' E 174°46'0 0.0
2016-Jan-28 17:33S 36°51' E 174°46'7 6.8
2016-Jan-28 16:34S 36°45' E 174°50'10 9.9
2016-Jan-28 15:34S 36°36' E 174°57'1010.3
2016-Jan-28 14:34S 36°27' E 175°02'1110.5
2016-Jan-28 13:33S 36°17' E 175°08'1111.0
2016-Jan-28 12:33S 36°07' E 175°12'  
2016-Jan-25 12:28S 26°48' E 153°42'1617.7
2016-Jan-25 11:33S 26°43' E 153°25'1212.3
2016-Jan-25 10:33S 26°45' E 153°11'1414.1
2016-Jan-25 09:33S 26°59' E 153°14'1615.7
2016-Jan-25 08:33S 27°14' E 153°20'1413.7
2016-Jan-25 07:33S 27°24' E 153°09'5 5.4
2016-Jan-25 06:34S 27°26' E 153°04'0 0.0
2016-Jan-25 05:33S 27°26' E 153°04'0 0.0
2016-Jan-25 04:30S 27°26' E 153°04'0 0.0
2016-Jan-25 03:24S 27°26' E 153°04'0 0.0
2016-Jan-25 02:30S 27°26' E 153°04'0 0.0
2016-Jan-25 01:30S 27°26' E 153°04'0 0.0
2016-Jan-25 00:27S 27°26' E 153°04'0 0.0
2016-Jan-24 23:33S 27°26' E 153°04'0 0.0
2016-Jan-24 22:12S 27°26' E 153°04'0 0.0
2016-Jan-24 21:33S 27°26' E 153°04'0 0.0
2016-Jan-24 20:33S 27°26' E 153°04'0 0.3
2016-Jan-24 19:33S 27°27' E 153°04'5 5.4
2016-Jan-24 18:33S 27°23' E 153°09'1211.6
2016-Jan-24 17:33S 27°15' E 153°18'1313.0
2016-Jan-24 16:34S 27°02' E 153°15'1414.1
2016-Jan-24 15:33S 26°49' E 153°10'1111.1
2016-Jan-24 14:34S 26°42' E 153°19'1515.1
2016-Jan-24 13:32S 26°34' E 153°34'1615.7
2016-Jan-24 12:33S 26°25' E 153°48'1919.1
2016-Jan-24 11:33S 26°14' E 154°05'2220.4
2016-Jan-24 10:30S 26°01' E 154°25'  

Dump ship's entire track history